createdAt,value
2018-04-14T00:01:02.252Z,114.87
2018-04-14T00:03:31.619Z,107.43
2018-04-14T00:06:01.026Z,115.97
2018-04-14T00:08:30.396Z,117.93
2018-04-14T00:10:59.798Z,108.20
2018-04-14T00:13:29.168Z,112.30
2018-04-14T00:15:58.568Z,110.47
2018-04-14T00:18:27.941Z,118.97
2018-04-14T00:20:57.347Z,113.67
2018-04-14T00:23:26.730Z,115.50
2018-04-14T00:25:56.122Z,129.00
2018-04-14T00:28:25.501Z,118.27
2018-04-14T00:30:54.910Z,120.37
2018-04-14T00:33:24.282Z,126.53
2018-04-14T00:35:53.685Z,127.57
2018-04-14T00:38:23.059Z,121.17
2018-04-14T00:40:52.474Z,132.83
2018-04-14T00:43:21.841Z,126.53
2018-04-14T00:45:51.238Z,125.37
2018-04-14T00:48:20.621Z,121.67
2018-04-14T00:50:50.026Z,128.67
2018-04-14T00:53:25.227Z,124.47
2018-04-14T00:55:54.633Z,132.20
2018-04-14T00:58:24.009Z,128.27
2018-04-14T01:00:53.410Z,129.73
2018-04-14T01:03:22.795Z,124.03
2018-04-14T01:05:52.198Z,125.83
2018-04-14T01:08:21.573Z,134.57
2018-04-14T01:10:50.982Z,119.70
2018-04-14T01:13:20.366Z,126.83
2018-04-14T01:15:49.767Z,130.13
2018-04-14T01:18:19.145Z,126.73
2018-04-14T01:20:48.541Z,122.33
2018-04-14T01:23:17.916Z,127.80
2018-04-14T01:25:45.961Z,125.27
2018-04-14T01:28:14.094Z,120.90
2018-04-14T01:30:42.233Z,126.97
2018-04-14T01:33:10.357Z,125.83
2018-04-14T01:35:38.492Z,136.13
2018-04-14T01:38:06.612Z,125.63
2018-04-14T01:40:36.261Z,122.90
2018-04-14T01:43:04.488Z,124.47
2018-04-14T01:45:32.626Z,133.70
2018-04-14T01:48:00.750Z,126.77
2018-04-14T01:50:29.659Z,130.30
2018-04-14T01:52:57.772Z,125.80
2018-04-14T01:55:25.913Z,149.20
2018-04-14T01:57:54.030Z,127.60
2018-04-14T02:00:22.179Z,127.40
2018-04-14T02:02:50.301Z,123.73
2018-04-14T02:05:19.172Z,117.67
2018-04-14T02:07:47.321Z,128.07
2018-04-14T02:10:15.439Z,123.20
2018-04-14T02:12:44.335Z,132.43
2018-04-14T02:15:13.300Z,127.57
2018-04-14T02:17:42.739Z,122.80
2018-04-14T02:20:11.634Z,127.33
2018-04-14T02:22:39.778Z,117.00
2018-04-14T02:25:08.826Z,109.57
2018-04-14T02:27:37.075Z,113.70
2018-04-14T02:30:05.958Z,111.83
2018-04-14T02:32:34.857Z,113.20
2018-04-14T02:35:03.742Z,118.47
2018-04-14T02:37:32.656Z,133.37
2018-04-14T02:40:00.773Z,135.10
2018-04-14T02:42:28.919Z,117.23
2018-04-14T02:44:57.047Z,128.93
2018-04-14T02:47:25.958Z,134.50
2018-04-14T02:49:54.122Z,137.50
2018-04-14T02:52:23.035Z,133.33
2018-04-14T02:54:51.157Z,136.87
2018-04-14T02:57:19.311Z,124.33
2018-04-14T02:59:47.441Z,128.13
2018-04-14T03:02:15.722Z,133.80
2018-04-14T03:04:43.846Z,132.67
2018-04-14T03:07:11.982Z,127.83
2018-04-14T03:09:40.101Z,130.80
2018-04-14T03:12:08.258Z,130.97
2018-04-14T03:14:36.409Z,134.77
2018-04-14T03:17:04.560Z,125.07
2018-04-14T03:19:32.676Z,127.60
2018-04-14T03:22:00.842Z,135.10
2018-04-14T03:24:28.964Z,135.50
2018-04-14T03:26:57.879Z,137.70
2018-04-14T03:29:26.003Z,141.67
2018-04-14T03:31:54.149Z,129.07
2018-04-14T03:34:22.273Z,135.13
2018-04-14T03:36:51.177Z,132.87
2018-04-14T03:39:19.384Z,134.27
2018-04-14T03:41:47.528Z,127.37
2018-04-14T03:44:15.732Z,132.13
2018-04-14T03:46:43.878Z,140.80
2018-04-14T03:49:12.306Z,136.00
2018-04-14T03:51:40.464Z,143.57
2018-04-14T03:54:08.625Z,147.97
2018-04-14T03:56:36.758Z,143.17
2018-04-14T03:59:05.636Z,137.17
2018-04-14T04:01:33.781Z,147.03
2018-04-14T04:04:01.931Z,140.53
2018-04-14T04:06:30.105Z,149.93
2018-04-14T04:08:58.231Z,132.60
2018-04-14T04:11:26.374Z,135.13
2018-04-14T04:13:54.519Z,142.53
2018-04-14T04:16:22.672Z,147.43
2018-04-14T04:19:03.209Z,143.10
2018-04-14T04:21:43.131Z,141.80
2018-04-14T04:24:23.216Z,158.60
2018-04-14T04:26:51.455Z,144.20
2018-04-14T04:29:19.579Z,142.07
2018-04-14T04:31:49.297Z,151.93
2018-04-14T04:34:17.555Z,140.20
2018-04-14T04:36:45.739Z,146.07
2018-04-14T04:39:13.852Z,155.67
2018-04-14T04:41:42.002Z,150.80
2018-04-14T04:44:10.885Z,148.73
2018-04-14T04:46:39.799Z,153.43
2018-04-14T04:49:07.904Z,144.27
2018-04-14T04:51:36.042Z,147.00
2018-04-14T04:54:04.158Z,158.10
2018-04-14T04:56:32.378Z,151.67
2018-04-14T04:59:01.255Z,153.23
2018-04-14T05:01:29.382Z,153.90
2018-04-14T05:03:57.766Z,164.37
2018-04-14T05:06:25.886Z,146.23
2018-04-14T05:08:54.794Z,170.97
2018-04-14T05:11:22.962Z,157.03
2018-04-14T05:13:51.875Z,150.23
2018-04-14T05:16:19.985Z,153.80
2018-04-14T05:18:48.497Z,152.50
2018-04-14T05:21:17.391Z,159.20
2018-04-14T05:23:46.307Z,158.17
2018-04-14T05:26:15.558Z,158.73
2018-04-14T05:28:44.514Z,154.93
2018-04-14T05:31:12.720Z,164.37
2018-04-14T05:33:40.858Z,158.33
2018-04-14T05:36:08.981Z,157.93
2018-04-14T05:38:37.130Z,153.80
2018-04-14T05:41:05.252Z,169.77
2018-04-14T05:43:33.382Z,153.03
2018-04-14T05:46:01.509Z,159.53
2018-04-14T05:48:29.650Z,154.97
2018-04-14T05:50:57.797Z,151.23
2018-04-14T05:53:25.921Z,147.87
2018-04-14T05:55:54.039Z,144.03
2018-04-14T05:58:22.202Z,133.97
2018-04-14T06:00:50.312Z,144.23
2018-04-14T06:03:18.463Z,138.93
2018-04-14T06:05:46.580Z,122.60
2018-04-14T06:08:15.486Z,123.17
2018-04-14T06:10:43.603Z,129.63
2018-04-14T06:13:11.807Z,114.27
2018-04-14T06:15:40.778Z,119.97
2018-04-14T06:18:09.717Z,104.70
2018-04-14T06:20:37.837Z,111.13
2018-04-14T06:23:06.022Z,112.43
2018-04-14T06:25:34.135Z,102.97
2018-04-14T06:28:02.317Z,99.53
2018-04-14T06:30:30.434Z,98.07
2018-04-14T06:32:58.619Z,95.90
2018-04-14T06:35:26.744Z,89.13
2018-04-14T06:37:54.933Z,92.43
2018-04-14T06:40:23.453Z,81.73
2018-04-14T06:42:54.017Z,82.47
2018-04-14T06:45:22.133Z,88.47
2018-04-14T06:47:50.266Z,88.97
2018-04-14T06:50:18.415Z,73.23
2018-04-14T06:52:46.745Z,69.17
2018-04-14T06:55:14.878Z,77.70
2018-04-14T06:57:44.387Z,65.83
2018-04-14T07:00:13.267Z,63.10
2018-04-14T07:02:42.161Z,64.20
2018-04-14T07:05:11.051Z,68.20
2018-04-14T07:07:39.964Z,61.07
2018-04-14T07:10:08.064Z,68.67
2018-04-14T07:12:36.206Z,56.28
2018-04-14T07:15:04.325Z,49.77
2018-04-14T07:17:32.461Z,48.83
2018-04-14T07:20:00.585Z,54.90
2018-04-14T07:22:28.764Z,60.13
2018-04-14T07:24:57.676Z,60.97
2018-04-14T07:27:26.585Z,56.10
2018-04-14T07:29:54.702Z,55.27
2018-04-14T07:32:23.615Z,54.27
2018-04-14T07:34:52.083Z,57.17
2018-04-14T07:37:21.924Z,55.97
2018-04-14T07:39:50.118Z,53.90
2018-04-14T07:42:18.269Z,57.07
2018-04-14T07:44:46.748Z,57.17
2018-04-14T07:47:15.130Z,58.80
2018-04-14T07:49:44.087Z,53.20
2018-04-14T07:52:12.188Z,53.33
2018-04-14T07:54:40.554Z,52.70
2018-04-14T07:57:08.857Z,53.20
2018-04-14T07:59:37.770Z,47.90
2018-04-14T08:02:05.949Z,49.10
2018-04-14T08:04:34.081Z,47.20
2018-04-14T08:07:02.199Z,45.13
2018-04-14T08:09:30.667Z,43.73
2018-04-14T08:11:59.537Z,44.03
2018-04-14T08:14:28.546Z,49.33
2018-04-14T08:16:57.546Z,52.50
2018-04-14T08:19:26.624Z,54.27
2018-04-14T08:21:54.786Z,53.90
2018-04-14T08:24:22.936Z,51.67
2018-04-14T08:26:51.129Z,48.43
2018-04-14T08:29:19.274Z,48.90
2018-04-14T08:31:47.392Z,55.43
2018-04-14T08:34:16.290Z,61.03
2018-04-14T08:36:45.178Z,63.10
2018-04-14T08:39:14.175Z,54.77
2018-04-14T08:41:43.045Z,49.70
2018-04-14T08:44:11.194Z,53.03
2018-04-14T08:46:39.306Z,47.37
2018-04-14T08:49:08.205Z,53.50
2018-04-14T08:51:37.076Z,46.90
2018-04-14T08:54:05.225Z,43.80
2018-04-14T08:56:33.334Z,46.00
2018-04-14T08:59:02.229Z,44.07
2018-04-14T09:01:31.109Z,55.40
2018-04-14T09:03:59.260Z,54.97
2018-04-14T09:06:27.366Z,54.03
2018-04-14T09:08:55.507Z,49.87
2018-04-14T09:11:23.624Z,59.27
2018-04-14T09:13:52.521Z,53.80
2018-04-14T09:16:21.406Z,57.23
2018-04-14T09:18:50.315Z,63.67
2018-04-14T09:21:18.422Z,81.30
2018-04-14T09:23:46.562Z,81.70
2018-04-14T09:26:14.670Z,82.53
2018-04-14T09:28:42.810Z,89.53
2018-04-14T09:31:10.924Z,86.87
2018-04-14T09:33:39.083Z,86.63
2018-04-14T09:36:07.205Z,85.17
2018-04-14T09:38:36.111Z,81.40
2018-04-14T09:41:04.980Z,78.33
2018-04-14T09:43:33.136Z,76.27
2018-04-14T09:46:01.248Z,75.10
2018-04-14T09:48:30.183Z,76.27
2018-04-14T09:50:58.294Z,83.00
2018-04-14T09:53:26.442Z,73.80
2018-04-14T09:55:55.904Z,71.40
2018-04-14T09:58:25.288Z,72.20
2018-04-14T10:00:59.073Z,85.83
2018-04-14T10:03:29.208Z,95.20
2018-04-14T10:05:58.004Z,84.00
2018-04-14T10:08:27.494Z,79.17
2018-04-14T10:10:56.852Z,80.17
2018-04-14T10:13:26.310Z,74.33
2018-04-14T10:15:55.093Z,85.40
2018-04-14T10:18:23.980Z,83.73
2018-04-14T10:20:52.122Z,79.93
2018-04-14T10:23:20.238Z,79.10
2018-04-14T10:25:49.250Z,76.30
2018-04-14T10:28:17.369Z,84.30
2018-04-14T10:30:45.514Z,87.37
2018-04-14T10:33:13.644Z,83.27
2018-04-14T10:35:42.239Z,84.47
2018-04-14T10:38:11.134Z,85.87
2018-04-14T10:40:40.031Z,87.57
2018-04-14T10:43:08.914Z,82.50
2018-04-14T10:45:37.804Z,78.80
2018-04-14T10:48:06.699Z,82.03
2018-04-14T10:50:34.875Z,86.43
2018-04-14T10:53:03.766Z,84.07
2018-04-14T10:55:32.675Z,82.47
2018-04-14T10:58:00.795Z,95.43
2018-04-14T11:00:28.942Z,89.57
2018-04-14T11:02:57.057Z,85.60
2018-04-14T11:05:26.797Z,79.33
2018-04-14T11:07:55.042Z,81.60
2018-04-14T11:10:23.174Z,76.80
2018-04-14T11:12:51.286Z,79.23
2018-04-14T11:15:19.616Z,75.37
2018-04-14T11:17:49.411Z,73.53
2018-04-14T11:20:18.311Z,67.60
2018-04-14T11:22:47.200Z,72.00
2018-04-14T11:25:16.138Z,70.73
2018-04-14T11:27:44.253Z,70.77
2018-04-14T11:30:13.547Z,64.20
2018-04-14T11:32:41.734Z,70.50
2018-04-14T11:35:10.630Z,67.73
2018-04-14T11:37:39.509Z,74.23
2018-04-14T11:40:07.678Z,70.07
2018-04-14T11:42:35.875Z,68.53
2018-04-14T11:45:04.782Z,71.90
2018-04-14T11:47:33.024Z,67.83
2018-04-14T11:50:01.159Z,73.90
2018-04-14T11:52:29.270Z,79.37
2018-04-14T11:54:57.409Z,71.03
2018-04-14T11:57:25.527Z,65.37
2018-04-14T11:59:53.671Z,60.83
2018-04-14T12:02:21.801Z,64.60
2018-04-14T12:04:49.941Z,63.87
2018-04-14T12:07:18.058Z,69.17
2018-04-14T12:09:46.201Z,65.70
2018-04-14T12:12:14.378Z,59.90
2018-04-14T12:14:42.482Z,56.20
2018-04-14T12:17:10.941Z,67.97
2018-04-14T12:19:39.074Z,63.70
2018-04-14T12:22:07.197Z,58.80
2018-04-14T12:24:35.431Z,61.43
2018-04-14T12:27:03.600Z,56.20
2018-04-14T12:29:31.745Z,60.27
2018-04-14T12:31:59.864Z,61.83
2018-04-14T12:34:27.998Z,61.93
2018-04-14T12:36:56.119Z,67.57
2018-04-14T12:39:25.029Z,54.43
2018-04-14T12:41:53.237Z,56.00
2018-04-14T12:44:21.359Z,56.80
2018-04-14T12:46:50.264Z,56.60
2018-04-14T12:49:19.500Z,53.73
2018-04-14T12:51:49.266Z,55.10
2018-04-14T12:54:17.475Z,59.63
2018-04-14T12:56:45.721Z,56.20
2018-04-14T12:59:13.867Z,60.63
2018-04-14T13:01:41.997Z,62.67
2018-04-14T13:04:10.132Z,56.73
2018-04-14T13:06:39.038Z,52.10
2018-04-14T13:09:07.918Z,55.03
2018-04-14T13:11:36.810Z,54.97
2018-04-14T13:14:05.694Z,57.23
2018-04-14T13:16:33.829Z,59.03
2018-04-14T13:19:01.957Z,53.53
2018-04-14T13:21:30.893Z,59.37
2018-04-14T13:23:59.010Z,55.60
2018-04-14T13:26:27.924Z,53.10
2018-04-14T13:28:56.042Z,48.93
2018-04-14T13:31:24.178Z,50.97
2018-04-14T13:33:54.068Z,51.47
2018-04-14T13:36:22.960Z,54.90
2018-04-14T13:38:51.838Z,51.50
2018-04-14T13:41:19.990Z,49.53
2018-04-14T13:43:49.242Z,57.77
2018-04-14T13:46:17.392Z,48.43
2018-04-14T13:48:46.294Z,52.13
2018-04-14T13:51:14.936Z,56.03
2018-04-14T13:53:43.044Z,59.47
2018-04-14T13:56:11.938Z,53.57
2018-04-14T13:58:40.816Z,54.23
2018-04-14T14:01:08.955Z,50.23
2018-04-14T14:03:37.059Z,57.00
2018-04-14T14:06:05.218Z,54.00
2018-04-14T14:08:33.335Z,59.20
2018-04-14T14:11:02.233Z,62.30
2018-04-14T14:13:30.355Z,56.03
2018-04-14T14:15:58.491Z,57.40
2018-04-14T14:18:26.634Z,55.40
2018-04-14T14:20:55.540Z,60.67
2018-04-14T14:23:24.409Z,56.23
2018-04-14T14:25:52.551Z,57.63
2018-04-14T14:28:20.655Z,56.90
2018-04-14T14:30:48.799Z,64.40
2018-04-14T14:33:16.923Z,65.30
2018-04-14T14:35:45.813Z,63.40
2018-04-14T14:38:14.701Z,60.27
2018-04-14T14:40:43.607Z,60.33
2018-04-14T14:43:11.717Z,55.37
2018-04-14T14:45:39.862Z,64.13
2018-04-14T14:48:08.038Z,54.63
2018-04-14T14:50:36.342Z,55.20
2018-04-14T14:53:04.749Z,53.93
2018-04-14T14:55:32.904Z,58.63
2018-04-14T14:58:01.006Z,58.10
2018-04-14T15:00:29.956Z,57.90
2018-04-14T15:02:58.081Z,62.13
2018-04-14T15:05:27.368Z,66.27
2018-04-14T15:07:56.353Z,72.20
2018-04-14T15:10:25.523Z,57.00
2018-04-14T15:12:53.662Z,51.60
2018-04-14T15:15:21.796Z,56.60
2018-04-14T15:17:49.922Z,54.77
2018-04-14T15:20:18.041Z,54.43
2018-04-14T15:22:46.173Z,58.37
2018-04-14T15:25:14.310Z,59.63
2018-04-14T15:27:43.213Z,55.60
2018-04-14T15:30:11.349Z,62.03
2018-04-14T15:32:39.488Z,57.90
2018-04-14T15:35:07.599Z,54.43
2018-04-14T15:37:35.737Z,58.77
2018-04-14T15:40:03.919Z,51.73
2018-04-14T15:42:32.058Z,56.67
2018-04-14T15:45:00.178Z,55.70
2018-04-14T15:47:28.348Z,55.60
2018-04-14T15:49:56.466Z,62.57
2018-04-14T15:52:25.363Z,52.13
2018-04-14T15:54:53.483Z,56.47
2018-04-14T15:57:21.614Z,60.23
2018-04-14T15:59:50.354Z,59.67
2018-04-14T16:02:18.496Z,57.57
2018-04-14T16:04:46.638Z,53.63
2018-04-14T16:07:15.533Z,66.50
2018-04-14T16:09:43.656Z,57.90
2018-04-14T16:12:11.795Z,61.47
2018-04-14T16:14:39.905Z,59.20
2018-04-14T16:17:08.085Z,64.80
2018-04-14T16:19:36.182Z,64.20
2018-04-14T16:22:04.366Z,62.03
2018-04-14T16:24:33.240Z,55.57
2018-04-14T16:27:01.385Z,66.40
2018-04-14T16:29:29.511Z,68.93
2018-04-14T16:31:58.415Z,60.60
2018-04-14T16:34:26.537Z,64.17
2018-04-14T16:36:55.430Z,66.97
2018-04-14T16:39:23.551Z,59.17
2018-04-14T16:41:51.682Z,62.63
2018-04-14T16:44:19.798Z,66.57
2018-04-14T16:46:47.931Z,67.47
2018-04-14T16:49:16.193Z,63.30
2018-04-14T16:51:44.330Z,68.70
2018-04-14T16:54:12.431Z,62.40
2018-04-14T16:56:41.333Z,64.03
2018-04-14T16:59:09.442Z,67.80
2018-04-14T17:01:38.345Z,65.60
2018-04-14T17:04:06.448Z,66.10
2018-04-14T17:06:34.595Z,67.27
2018-04-14T17:09:02.809Z,69.50
2018-04-14T17:11:31.230Z,67.03
2018-04-14T17:14:00.106Z,66.93
2018-04-14T17:16:28.247Z,67.43
2018-04-14T17:18:56.363Z,78.27
2018-04-14T17:21:25.263Z,78.90
2018-04-14T17:23:54.142Z,69.70
2018-04-14T17:26:23.047Z,70.90
2018-04-14T17:28:51.934Z,69.00
2018-04-14T17:31:20.858Z,72.70
2018-04-14T17:33:48.968Z,68.60
2018-04-14T17:36:17.113Z,67.13
2018-04-14T17:38:45.246Z,69.37
2018-04-14T17:41:14.215Z,68.30
2018-04-14T17:43:52.550Z,67.33
2018-04-14T17:46:20.699Z,67.77
2018-04-14T17:48:48.806Z,67.63
2018-04-14T17:51:17.713Z,68.87
2018-04-14T17:53:45.817Z,72.27
2018-04-14T17:56:13.961Z,69.67
2018-04-14T17:58:42.109Z,70.87
2018-04-14T18:01:10.248Z,79.10
2018-04-14T18:03:38.379Z,75.47
2018-04-14T18:06:06.863Z,66.13
2018-04-14T18:08:35.434Z,73.30
2018-04-14T18:11:04.391Z,78.70
2018-04-14T18:13:32.550Z,71.63
2018-04-14T18:16:00.652Z,74.80
2018-04-14T18:18:28.812Z,72.70
2018-04-14T18:20:56.978Z,79.33
2018-04-14T18:23:25.114Z,75.17
2018-04-14T18:25:53.313Z,71.60
2018-04-14T18:28:21.451Z,77.93
2018-04-14T18:30:49.574Z,80.80
2018-04-14T18:33:17.719Z,73.00
2018-04-14T18:35:45.982Z,76.70
2018-04-14T18:38:14.129Z,76.63
2018-04-14T18:40:42.249Z,80.30
2018-04-14T18:43:10.389Z,82.73
2018-04-14T18:45:39.305Z,74.00
2018-04-14T18:48:07.439Z,77.47
2018-04-14T18:50:36.328Z,75.50
2018-04-14T18:53:04.469Z,75.57
2018-04-14T18:55:32.614Z,71.53
2018-04-14T18:58:00.806Z,75.50
2018-04-14T19:00:28.926Z,84.80
2018-04-14T19:02:57.859Z,77.20
2018-04-14T19:05:25.960Z,84.00
2018-04-14T19:07:54.108Z,73.53
2018-04-14T19:10:22.273Z,70.50
2018-04-14T19:12:51.150Z,81.03
2018-04-14T19:15:19.276Z,81.03
2018-04-14T19:17:47.414Z,83.03
2018-04-14T19:20:15.520Z,81.73
2018-04-14T19:22:43.654Z,79.93
2018-04-14T19:25:11.796Z,73.60
2018-04-14T19:27:39.943Z,76.90
2018-04-14T19:30:08.066Z,84.63
2018-04-14T19:32:36.961Z,84.60
2018-04-14T19:35:05.064Z,88.00
2018-04-14T19:37:33.201Z,80.23
2018-04-14T19:40:01.426Z,79.80
2018-04-14T19:42:29.563Z,78.17
2018-04-14T19:44:57.850Z,72.67
2018-04-14T19:47:26.109Z,82.57
2018-04-14T19:49:55.587Z,80.20
2018-04-14T19:52:24.390Z,69.47
2018-04-14T19:54:53.284Z,72.13
2018-04-14T19:57:22.178Z,82.87
2018-04-14T19:59:50.309Z,77.10
2018-04-14T20:02:18.442Z,77.93
2018-04-14T20:04:46.565Z,72.07
2018-04-14T20:07:14.699Z,71.87
2018-04-14T20:09:42.808Z,89.90
2018-04-14T20:12:10.957Z,75.93
2018-04-14T20:14:39.082Z,82.67
2018-04-14T20:17:07.983Z,72.77
2018-04-14T20:19:36.133Z,86.53
2018-04-14T20:22:04.274Z,79.90
2018-04-14T20:24:32.382Z,80.37
2018-04-14T20:27:00.520Z,88.50
2018-04-14T20:29:28.620Z,86.63
2018-04-14T20:31:56.739Z,77.30
2018-04-14T20:34:24.872Z,88.77
2018-04-14T20:36:53.875Z,84.20
2018-04-14T20:39:22.783Z,82.70
2018-04-14T20:41:50.901Z,80.27
2018-04-14T20:44:19.027Z,85.90
2018-04-14T20:46:47.173Z,83.40
2018-04-14T20:49:15.324Z,78.30
2018-04-14T20:51:43.445Z,77.87
2018-04-14T20:54:11.589Z,80.63
2018-04-14T20:56:39.707Z,86.80
2018-04-14T20:59:07.850Z,83.90
2018-04-14T21:01:36.727Z,84.30
2018-04-14T21:04:04.856Z,82.50
2018-04-14T21:06:34.304Z,91.27
2018-04-14T21:09:03.122Z,85.87
2018-04-14T21:11:31.234Z,105.67
2018-04-14T21:13:59.383Z,92.10
2018-04-14T21:16:27.520Z,86.90
2018-04-14T21:18:56.429Z,80.03
2018-04-14T21:21:24.613Z,84.47
2018-04-14T21:23:52.751Z,74.97
2018-04-14T21:26:20.875Z,75.97
2018-04-14T21:28:49.001Z,65.60
2018-04-14T21:31:17.122Z,75.60
2018-04-14T21:33:45.251Z,74.97
2018-04-14T21:36:14.151Z,79.43
2018-04-14T21:38:43.062Z,87.57
2018-04-14T21:41:11.197Z,72.83
2018-04-14T21:43:39.321Z,78.87
2018-04-14T21:46:07.436Z,79.37
2018-04-14T21:48:35.561Z,67.83
2018-04-14T21:51:03.753Z,66.63
2018-04-14T21:53:31.902Z,79.30
2018-04-14T21:56:00.019Z,75.70
2018-04-14T21:58:28.917Z,81.63
2018-04-14T22:00:57.033Z,71.17
2018-04-14T22:03:25.170Z,74.90
2018-04-14T22:05:53.288Z,70.10
2018-04-14T22:08:21.438Z,80.33
2018-04-14T22:10:50.362Z,66.10
2018-04-14T22:13:18.502Z,63.90
2018-04-14T22:15:47.387Z,70.37
2018-04-14T22:18:16.303Z,67.13
2018-04-14T22:20:45.182Z,70.10
2018-04-14T22:23:14.073Z,66.13
2018-04-14T22:25:42.954Z,63.33
2018-04-14T22:28:11.094Z,65.80
2018-04-14T22:30:39.208Z,76.10
2018-04-14T22:33:08.120Z,71.57
2018-04-14T22:35:36.231Z,69.70
2018-04-14T22:38:04.423Z,67.23
2018-04-14T22:40:32.540Z,74.67
2018-04-14T22:43:00.688Z,77.23
2018-04-14T22:45:28.792Z,64.23
2018-04-14T22:47:56.941Z,69.30
2018-04-14T22:50:25.817Z,67.13
2018-04-14T22:52:53.966Z,62.53
2018-04-14T22:55:22.161Z,57.63
2018-04-14T22:57:50.303Z,72.50
2018-04-14T23:00:18.423Z,68.43
2018-04-14T23:02:47.342Z,70.23
2018-04-14T23:05:15.456Z,68.70
2018-04-14T23:07:43.565Z,61.90
2018-04-14T23:10:12.472Z,80.03
2018-04-14T23:12:40.582Z,65.13
2018-04-14T23:15:08.711Z,65.33
2018-04-14T23:17:36.872Z,72.80
2018-04-14T23:20:05.778Z,82.20
2018-04-14T23:22:34.655Z,72.80
2018-04-14T23:25:03.554Z,75.23
2018-04-14T23:27:32.432Z,68.27
2018-04-14T23:30:01.343Z,59.90
2018-04-14T23:32:29.461Z,64.53
2018-04-14T23:34:57.598Z,63.70
2018-04-14T23:37:25.719Z,77.97
2018-04-14T23:39:54.659Z,70.90
2018-04-14T23:42:22.765Z,72.00
2018-04-14T23:44:50.903Z,74.57
2018-04-14T23:47:19.018Z,71.00
2018-04-14T23:49:47.145Z,78.10
2018-04-14T23:52:15.261Z,78.83
2018-04-14T23:54:43.389Z,64.10
2018-04-14T23:57:12.273Z,70.07
2018-04-14T23:59:41.187Z,68.57
